createdAt,value
2018-03-31T00:00:56.672Z,94693.19
2018-03-31T00:03:24.907Z,94685.81
2018-03-31T00:05:52.811Z,94689.21
2018-03-31T00:08:20.729Z,94687.91
2018-03-31T00:10:48.638Z,94681.28
2018-03-31T00:13:16.482Z,94687.87
2018-03-31T00:15:44.432Z,94687.67
2018-03-31T00:18:12.304Z,94685.58
2018-03-31T00:20:40.333Z,94684.62
2018-03-31T00:23:08.285Z,94683.73
2018-03-31T00:25:36.166Z,94681.39
2018-03-31T00:28:04.145Z,94673.30
2018-03-31T00:30:32.041Z,94669.97
2018-03-31T00:32:59.919Z,94676.80
2018-03-31T00:35:27.813Z,94678.69
2018-03-31T00:37:55.726Z,94665.94
2018-03-31T00:40:23.625Z,94669.37
2018-03-31T00:42:51.552Z,94670.57
2018-03-31T00:45:19.466Z,94669.70
2018-03-31T00:47:47.406Z,94669.73
2018-03-31T00:50:15.279Z,94660.34
2018-03-31T00:52:43.271Z,94670.16
2018-03-31T00:55:11.135Z,94673.89
2018-03-31T00:57:39.085Z,94649.02
2018-03-31T01:00:07.005Z,94676.56
2018-03-31T01:02:34.921Z,94679.06
2018-03-31T01:05:02.959Z,94667.64
2018-03-31T01:07:30.833Z,94673.84
2018-03-31T01:09:58.707Z,94678.58
2018-03-31T01:12:26.636Z,94675.66
2018-03-31T01:14:54.507Z,94673.79
2018-03-31T01:17:22.440Z,94670.66
2018-03-31T01:19:50.330Z,94668.98
2018-03-31T01:22:18.221Z,94672.36
2018-03-31T01:24:46.136Z,94675.70
2018-03-31T01:27:14.024Z,94662.86
2018-03-31T01:29:42.088Z,94669.14
2018-03-31T01:32:10.015Z,94653.92
2018-03-31T01:34:37.942Z,94641.28
2018-03-31T01:37:05.816Z,94627.39
2018-03-31T01:39:33.743Z,94629.95
2018-03-31T01:42:01.648Z,94635.91
2018-03-31T01:44:29.587Z,94636.75
2018-03-31T01:46:57.581Z,94643.30
2018-03-31T01:49:25.496Z,94634.20
2018-03-31T01:51:53.434Z,94644.14
2018-03-31T01:54:21.366Z,94631.86
2018-03-31T01:56:49.277Z,94641.43
2018-03-31T01:59:17.321Z,94636.36
2018-03-31T02:01:45.233Z,94629.12
2018-03-31T02:04:13.219Z,94640.84
2018-03-31T02:06:41.182Z,94628.88
2018-03-31T02:09:09.062Z,94633.66
2018-03-31T02:11:37.004Z,94637.33
2018-03-31T02:14:04.919Z,94631.59
2018-03-31T02:16:32.816Z,94631.85
2018-03-31T02:19:00.765Z,94625.04
2018-03-31T02:21:28.690Z,94630.95
2018-03-31T02:23:56.618Z,94624.56
2018-03-31T02:26:24.476Z,94631.27
2018-03-31T02:28:52.445Z,94621.20
2018-03-31T02:31:20.329Z,94627.30
2018-03-31T02:33:48.218Z,94621.25
2018-03-31T02:36:16.132Z,94624.45
2018-03-31T02:38:44.020Z,94623.89
2018-03-31T02:41:11.937Z,94632.44
2018-03-31T02:43:39.821Z,94621.69
2018-03-31T02:46:07.743Z,94621.84
2018-03-31T02:48:35.717Z,94610.89
2018-03-31T02:51:03.578Z,94608.30
2018-03-31T02:53:31.498Z,94622.41
2018-03-31T02:55:59.436Z,94611.48
2018-03-31T02:58:27.340Z,94617.81
2018-03-31T03:00:55.407Z,94611.44
2018-03-31T03:03:23.554Z,94614.08
2018-03-31T03:05:51.475Z,94607.67
2018-03-31T03:08:19.529Z,94588.61
2018-03-31T03:10:47.400Z,94605.51
2018-03-31T03:13:15.344Z,94608.52
2018-03-31T03:15:42.961Z,94601.84
2018-03-31T03:18:10.568Z,94607.97
2018-03-31T03:20:38.136Z,94592.22
2018-03-31T03:23:05.771Z,94597.56
2018-03-31T03:25:33.340Z,94578.32
2018-03-31T03:28:01.005Z,94578.73
2018-03-31T03:30:28.611Z,94566.08
2018-03-31T03:32:56.211Z,94578.92
2018-03-31T03:35:23.822Z,94586.62
2018-03-31T03:37:51.405Z,94589.44
2018-03-31T03:40:19.021Z,94587.25
2018-03-31T03:42:46.579Z,94565.75
2018-03-31T03:45:14.211Z,94584.77
2018-03-31T03:47:41.818Z,94566.45
2018-03-31T03:50:09.413Z,94565.14
2018-03-31T03:52:37.165Z,94566.07
2018-03-31T03:55:04.759Z,94564.23
2018-03-31T03:57:32.324Z,94542.21
2018-03-31T03:59:59.932Z,94553.80
2018-03-31T04:02:27.655Z,94559.64
2018-03-31T04:04:55.220Z,94561.75
2018-03-31T04:07:22.864Z,94567.30
2018-03-31T04:09:50.475Z,94561.27
2018-03-31T04:12:18.061Z,94559.41
2018-03-31T04:14:45.776Z,94562.48
2018-03-31T04:17:13.388Z,94562.30
2018-03-31T04:19:41.012Z,94564.20
2018-03-31T04:22:08.588Z,94560.55
2018-03-31T04:24:36.204Z,94548.84
2018-03-31T04:27:03.983Z,94565.72
2018-03-31T04:29:31.553Z,94567.68
2018-03-31T04:31:59.356Z,94583.65
2018-03-31T04:34:26.941Z,94580.36
2018-03-31T04:36:54.509Z,94578.08
2018-03-31T04:39:22.117Z,94579.88
2018-03-31T04:41:49.687Z,94586.29
2018-03-31T04:44:17.316Z,94573.61
2018-03-31T04:46:44.956Z,94569.78
2018-03-31T04:49:12.541Z,94579.92
2018-03-31T04:51:40.184Z,94569.63
2018-03-31T04:54:07.844Z,94567.39
2018-03-31T04:56:35.408Z,94573.21
2018-03-31T04:59:03.052Z,94580.79
2018-03-31T05:01:30.697Z,94578.17
2018-03-31T05:03:58.308Z,94588.28
2018-03-31T05:06:25.939Z,94590.27
2018-03-31T05:08:53.598Z,94585.83
2018-03-31T05:11:21.248Z,94592.81
2018-03-31T05:13:48.850Z,94587.79
2018-03-31T05:16:16.460Z,94591.72
2018-03-31T05:18:44.139Z,94606.78
2018-03-31T05:21:11.727Z,94602.31
2018-03-31T05:23:39.534Z,94623.23
2018-03-31T05:26:07.157Z,94628.28
2018-03-31T05:28:34.862Z,94630.97
2018-03-31T05:31:02.579Z,94623.70
2018-03-31T05:33:30.204Z,94635.23
2018-03-31T05:35:57.780Z,94617.97
2018-03-31T05:38:25.355Z,94613.91
2018-03-31T05:40:52.934Z,94617.97
2018-03-31T05:43:20.529Z,94616.49
2018-03-31T05:45:48.144Z,94626.60
2018-03-31T05:48:15.708Z,94619.13
2018-03-31T05:50:43.295Z,94610.52
2018-03-31T05:53:10.922Z,94620.37
2018-03-31T05:55:38.533Z,94613.77
2018-03-31T05:58:06.118Z,94605.56
2018-03-31T06:00:33.772Z,94620.00
2018-03-31T06:03:01.348Z,94621.13
2018-03-31T06:05:28.921Z,94591.46
2018-03-31T06:07:56.518Z,94614.34
2018-03-31T06:10:24.161Z,94620.69
2018-03-31T06:12:51.748Z,94620.91
2018-03-31T06:15:19.340Z,94615.23
2018-03-31T06:17:46.953Z,94608.12
2018-03-31T06:20:14.646Z,94609.03
2018-03-31T06:22:42.243Z,94568.33
2018-03-31T06:25:09.878Z,94618.89
2018-03-31T06:27:37.481Z,94616.12
2018-03-31T06:30:05.040Z,94620.41
2018-03-31T06:32:32.663Z,94616.50
2018-03-31T06:35:00.245Z,94615.31
2018-03-31T06:37:27.877Z,94608.58
2018-03-31T06:39:55.519Z,94602.74
2018-03-31T06:42:23.134Z,94614.56
2018-03-31T06:44:50.706Z,94603.49
2018-03-31T06:47:18.340Z,94601.09
2018-03-31T06:49:46.037Z,94583.06
2018-03-31T06:52:13.618Z,94587.85
2018-03-31T06:54:41.201Z,94576.12
2018-03-31T06:57:08.824Z,94577.33
2018-03-31T06:59:36.438Z,94560.89
2018-03-31T07:02:04.000Z,94552.92
2018-03-31T07:04:31.622Z,94556.41
2018-03-31T07:06:59.218Z,94548.39
2018-03-31T07:09:26.848Z,94552.85
2018-03-31T07:11:54.441Z,94553.53
2018-03-31T07:14:22.044Z,94553.00
2018-03-31T07:16:49.626Z,94545.16
2018-03-31T07:19:17.245Z,94539.22
2018-03-31T07:21:44.868Z,94544.00
2018-03-31T07:24:12.585Z,94542.01
2018-03-31T07:26:40.297Z,94547.53
2018-03-31T07:29:07.877Z,94544.25
2018-03-31T07:31:35.501Z,94554.73
2018-03-31T07:34:03.098Z,94566.25
2018-03-31T07:36:30.753Z,94569.58
2018-03-31T07:38:58.341Z,94569.14
2018-03-31T07:41:25.923Z,94567.28
2018-03-31T07:43:53.561Z,94572.55
2018-03-31T07:46:21.252Z,94521.14
2018-03-31T07:48:48.902Z,94568.70
2018-03-31T07:51:16.528Z,94573.08
2018-03-31T07:53:44.333Z,94582.89
2018-03-31T07:56:11.920Z,94538.88
2018-03-31T07:58:39.495Z,94570.31
2018-03-31T08:01:07.132Z,94530.14
2018-03-31T08:03:34.708Z,94568.36
2018-03-31T08:06:02.881Z,94566.44
2018-03-31T08:08:30.554Z,94561.12
2018-03-31T08:10:58.136Z,94557.72
2018-03-31T08:13:25.745Z,94553.70
2018-03-31T08:15:53.432Z,94546.67
2018-03-31T08:18:21.198Z,94546.61
2018-03-31T08:20:48.846Z,94543.80
2018-03-31T08:23:16.484Z,94547.78
2018-03-31T08:25:44.138Z,94539.66
2018-03-31T08:28:11.726Z,94527.55
2018-03-31T08:30:39.356Z,94529.10
2018-03-31T08:33:06.940Z,94525.33
2018-03-31T08:35:34.540Z,94495.53
2018-03-31T08:38:02.173Z,94507.27
2018-03-31T08:40:29.748Z,94511.27
2018-03-31T08:42:57.387Z,94493.00
2018-03-31T08:45:24.975Z,94472.81
2018-03-31T08:47:52.676Z,94494.89
2018-03-31T08:50:20.264Z,94491.78
2018-03-31T08:52:47.915Z,94490.47
2018-03-31T08:55:15.533Z,94471.73
2018-03-31T08:57:43.135Z,94488.92
2018-03-31T09:00:10.708Z,94470.81
2018-03-31T09:02:38.289Z,94469.84
2018-03-31T09:05:05.909Z,94470.83
2018-03-31T09:07:33.522Z,94479.30
2018-03-31T09:10:01.179Z,94475.59
2018-03-31T09:12:28.748Z,94464.28
2018-03-31T09:14:57.339Z,94471.08
2018-03-31T09:17:25.028Z,94437.07
2018-03-31T09:19:52.676Z,94456.16
2018-03-31T09:22:20.347Z,94427.70
2018-03-31T09:24:47.941Z,94442.47
2018-03-31T09:27:15.917Z,94434.83
2018-03-31T09:29:43.621Z,94432.50
2018-03-31T09:32:11.223Z,94408.46
2018-03-31T09:34:38.834Z,94388.38
2018-03-31T09:37:06.413Z,94390.11
2018-03-31T09:39:34.022Z,94394.30
2018-03-31T09:42:01.642Z,94401.60
2018-03-31T09:44:29.293Z,94352.25
2018-03-31T09:46:56.896Z,94359.11
2018-03-31T09:49:24.529Z,94374.06
2018-03-31T09:51:52.158Z,94354.13
2018-03-31T09:54:19.822Z,94319.95
2018-03-31T09:56:47.416Z,94343.89
2018-03-31T09:59:15.037Z,94331.81
2018-03-31T10:01:42.610Z,94336.23
2018-03-31T10:04:10.196Z,94321.96
2018-03-31T10:06:37.809Z,94304.39
2018-03-31T10:09:05.382Z,94318.08
2018-03-31T10:11:33.353Z,94298.81
2018-03-31T10:14:01.006Z,94296.23
2018-03-31T10:16:28.649Z,94302.56
2018-03-31T10:18:56.246Z,94292.37
2018-03-31T10:21:23.879Z,94274.98
2018-03-31T10:23:51.600Z,94290.86
2018-03-31T10:26:19.213Z,94281.55
2018-03-31T10:28:46.816Z,94291.82
2018-03-31T10:31:14.433Z,94266.78
2018-03-31T10:33:42.038Z,94257.83
2018-03-31T10:36:09.631Z,94279.33
2018-03-31T10:38:37.259Z,94273.31
2018-03-31T10:41:04.828Z,94267.80
2018-03-31T10:43:32.392Z,94244.11
2018-03-31T10:45:59.997Z,94233.88
2018-03-31T10:48:27.564Z,94237.41
2018-03-31T10:50:55.173Z,94236.13
2018-03-31T10:53:22.737Z,94234.20
2018-03-31T10:55:50.321Z,94220.20
2018-03-31T10:58:17.928Z,94208.73
2018-03-31T11:00:45.565Z,94214.95
2018-03-31T11:03:13.174Z,94199.66
2018-03-31T11:05:40.855Z,94230.58
2018-03-31T11:08:08.490Z,94245.23
2018-03-31T11:10:36.128Z,94233.20
2018-03-31T11:13:03.976Z,94246.95
2018-03-31T11:15:32.033Z,94209.34
2018-03-31T11:17:59.601Z,94202.80
2018-03-31T11:20:27.164Z,94208.70
2018-03-31T11:22:55.144Z,94196.22
2018-03-31T11:25:22.774Z,94195.14
2018-03-31T11:27:50.334Z,94195.05
2018-03-31T11:30:18.120Z,94187.30
2018-03-31T11:32:45.706Z,94205.28
2018-03-31T11:35:13.272Z,94179.30
2018-03-31T11:37:41.200Z,94183.67
2018-03-31T11:40:08.757Z,94194.51
2018-03-31T11:42:36.312Z,94151.72
2018-03-31T11:45:04.494Z,94209.06
2018-03-31T11:47:32.076Z,94177.10
2018-03-31T11:49:59.653Z,94166.70
2018-03-31T11:52:27.408Z,94219.06
2018-03-31T11:54:54.980Z,94164.91
2018-03-31T11:57:22.553Z,94136.59
2018-03-31T11:59:50.699Z,94159.55
2018-03-31T12:02:18.302Z,94150.16
2018-03-31T12:04:45.861Z,94143.26
2018-03-31T12:07:13.773Z,94153.25
2018-03-31T12:09:41.350Z,94127.34
2018-03-31T12:12:08.901Z,94096.23
2018-03-31T12:14:36.869Z,94133.48
2018-03-31T12:17:04.437Z,94139.81
2018-03-31T12:19:32.006Z,94135.45
2018-03-31T12:21:59.944Z,94127.98
2018-03-31T12:24:27.520Z,94114.55
2018-03-31T12:26:55.095Z,94104.15
2018-03-31T12:29:22.950Z,94106.20
2018-03-31T12:31:50.520Z,94117.05
2018-03-31T12:34:18.093Z,94101.91
2018-03-31T12:36:46.145Z,94107.94
2018-03-31T12:39:13.716Z,94085.97
2018-03-31T12:41:41.417Z,94067.68
2018-03-31T12:44:09.024Z,94073.72
2018-03-31T12:46:36.598Z,94062.05
2018-03-31T12:49:04.177Z,94054.83
2018-03-31T12:51:33.159Z,94062.03
2018-03-31T12:54:00.814Z,94027.91
2018-03-31T12:56:28.395Z,94036.95
2018-03-31T12:58:56.005Z,94024.02
2018-03-31T13:01:23.581Z,94046.55
2018-03-31T13:03:51.213Z,94024.02
2018-03-31T13:06:18.821Z,93996.36
2018-03-31T13:08:46.387Z,94014.20
2018-03-31T13:11:13.997Z,94004.03
2018-03-31T13:13:41.579Z,93999.34
2018-03-31T13:16:09.311Z,93976.51
2018-03-31T13:18:37.096Z,93987.41
2018-03-31T13:21:04.662Z,93989.95
2018-03-31T13:23:32.297Z,93973.55
2018-03-31T13:26:00.054Z,93974.14
2018-03-31T13:28:27.696Z,93984.36
2018-03-31T13:30:55.287Z,93955.30
2018-03-31T13:33:23.024Z,93988.92
2018-03-31T13:35:50.725Z,93986.50
2018-03-31T13:38:18.288Z,93986.82
2018-03-31T13:40:45.949Z,93992.78
2018-03-31T13:43:13.524Z,93975.20
2018-03-31T13:45:41.105Z,93964.59
2018-03-31T13:48:08.759Z,93968.20
2018-03-31T13:50:36.353Z,93940.17
2018-03-31T13:53:03.973Z,93981.20
2018-03-31T13:55:31.557Z,93974.56
2018-03-31T13:57:59.133Z,93983.07
2018-03-31T14:00:26.731Z,93934.85
2018-03-31T14:02:54.319Z,93946.56
2018-03-31T14:05:21.936Z,93927.36
2018-03-31T14:07:49.504Z,93940.92
2018-03-31T14:10:17.165Z,93925.97
2018-03-31T14:12:44.817Z,93923.38
2018-03-31T14:15:12.521Z,93955.44
2018-03-31T14:17:40.131Z,93931.84
2018-03-31T14:20:07.752Z,93926.34
2018-03-31T14:22:35.339Z,93921.23
2018-03-31T14:25:03.060Z,93930.50
2018-03-31T14:27:30.733Z,93936.70
2018-03-31T14:29:58.426Z,93934.00
2018-03-31T14:32:26.120Z,93921.09
2018-03-31T14:34:53.697Z,93930.83
2018-03-31T14:37:21.321Z,93931.47
2018-03-31T14:39:48.880Z,93946.34
2018-03-31T14:42:16.507Z,93920.30
2018-03-31T14:44:44.125Z,93915.08
2018-03-31T14:47:11.716Z,93924.08
2018-03-31T14:49:39.351Z,93922.62
2018-03-31T14:52:06.930Z,93915.47
2018-03-31T14:54:34.556Z,93921.19
2018-03-31T14:57:02.326Z,93920.63
2018-03-31T14:59:30.122Z,93943.90
2018-03-31T15:01:58.060Z,93945.73
2018-03-31T15:04:25.733Z,93928.96
2018-03-31T15:06:53.356Z,93931.25
2018-03-31T15:09:21.302Z,93937.02
2018-03-31T15:11:49.175Z,93937.38
2018-03-31T15:14:17.869Z,93955.36
2018-03-31T15:16:45.531Z,93909.88
2018-03-31T15:19:13.355Z,93895.73
2018-03-31T15:21:41.293Z,93905.52
2018-03-31T15:24:08.979Z,93901.66
2018-03-31T15:26:36.655Z,93891.85
2018-03-31T15:29:04.242Z,93912.33
2018-03-31T15:31:32.083Z,93904.84
2018-03-31T15:33:59.719Z,93902.77
2018-03-31T15:36:27.372Z,93872.92
2018-03-31T15:38:54.950Z,93881.25
2018-03-31T15:41:22.597Z,93883.80
2018-03-31T15:43:50.390Z,93884.34
2018-03-31T15:46:18.181Z,93882.42
2018-03-31T15:48:45.856Z,93868.64
2018-03-31T15:51:13.615Z,93860.78
2018-03-31T15:53:41.387Z,93857.39
2018-03-31T15:56:09.025Z,93846.47
2018-03-31T15:58:36.644Z,93825.03
2018-03-31T16:01:04.206Z,93802.15
2018-03-31T16:03:31.846Z,93792.13
2018-03-31T16:05:59.437Z,93831.31
2018-03-31T16:08:27.244Z,93806.75
2018-03-31T16:10:54.883Z,93807.59
2018-03-31T16:13:22.464Z,93827.13
2018-03-31T16:15:50.102Z,93834.30
2018-03-31T16:18:17.683Z,93809.67
2018-03-31T16:20:45.565Z,93809.73
2018-03-31T16:23:13.139Z,93809.91
2018-03-31T16:25:40.747Z,93795.06
2018-03-31T16:28:08.701Z,93801.06
2018-03-31T16:30:36.339Z,93806.94
2018-03-31T16:33:04.004Z,93788.05
2018-03-31T16:35:32.269Z,93790.70
2018-03-31T16:37:59.881Z,93798.83
2018-03-31T16:40:27.542Z,93754.57
2018-03-31T16:42:55.197Z,93786.38
2018-03-31T16:45:22.789Z,93777.42
2018-03-31T16:47:50.398Z,93779.12
2018-03-31T16:50:18.100Z,93760.51
2018-03-31T16:52:45.721Z,93757.67
2018-03-31T16:55:13.394Z,93765.05
2018-03-31T16:57:40.970Z,93774.53
2018-03-31T17:00:08.649Z,93761.16
2018-03-31T17:02:36.289Z,93781.77
2018-03-31T17:05:03.889Z,93755.41
2018-03-31T17:07:31.493Z,93744.18
2018-03-31T17:09:59.069Z,93761.68
2018-03-31T17:12:26.690Z,93748.86
2018-03-31T17:14:54.251Z,93753.44
2018-03-31T17:17:21.856Z,93750.81
2018-03-31T17:19:49.474Z,93715.66
2018-03-31T17:22:17.042Z,93737.13
2018-03-31T17:24:44.669Z,93741.35
2018-03-31T17:27:12.270Z,93741.89
2018-03-31T17:29:40.038Z,93745.57
2018-03-31T17:32:07.673Z,93748.05
2018-03-31T17:34:35.245Z,93751.70
2018-03-31T17:37:02.829Z,93750.06
2018-03-31T17:39:30.457Z,93754.01
2018-03-31T17:41:58.040Z,93730.33
2018-03-31T17:44:25.673Z,93726.38
2018-03-31T17:46:53.342Z,93725.20
2018-03-31T17:49:21.044Z,93724.97
2018-03-31T17:51:48.760Z,93730.16
2018-03-31T17:54:16.448Z,93722.94
2018-03-31T17:56:44.048Z,93721.23
2018-03-31T17:59:11.624Z,93767.70
2018-03-31T18:01:39.185Z,93736.14
2018-03-31T18:04:06.832Z,93705.87
2018-03-31T18:06:34.417Z,93708.50
2018-03-31T18:09:02.027Z,93703.00
2018-03-31T18:11:29.645Z,93717.92
2018-03-31T18:13:57.264Z,93723.40
2018-03-31T18:16:24.881Z,93727.45
2018-03-31T18:18:52.456Z,93724.58
2018-03-31T18:21:20.077Z,93691.45
2018-03-31T18:23:47.645Z,93718.09
2018-03-31T18:26:15.236Z,93732.40
2018-03-31T18:28:42.871Z,93710.83
2018-03-31T18:31:10.444Z,93727.99
2018-03-31T18:33:38.109Z,93695.95
2018-03-31T18:36:05.733Z,93693.66
2018-03-31T18:38:33.373Z,93713.31
2018-03-31T18:41:00.988Z,93693.89
2018-03-31T18:43:28.608Z,93682.99
2018-03-31T18:45:56.242Z,93680.64
2018-03-31T18:48:23.906Z,93707.72
2018-03-31T18:50:51.532Z,93678.46
2018-03-31T18:53:19.147Z,93704.63
2018-03-31T18:55:46.924Z,93689.36
2018-03-31T18:58:14.592Z,93680.98
2018-03-31T19:00:42.225Z,93680.18
2018-03-31T19:03:09.854Z,93673.66
2018-03-31T19:05:37.626Z,93689.80
2018-03-31T19:08:05.212Z,93656.91
2018-03-31T19:10:32.804Z,93686.20
2018-03-31T19:13:00.608Z,93656.89
2018-03-31T19:15:28.197Z,93665.34
2018-03-31T19:17:55.829Z,93684.19
2018-03-31T19:20:23.524Z,93617.12
2018-03-31T19:22:51.126Z,93644.02
2018-03-31T19:25:24.300Z,93665.13
2018-03-31T19:27:51.922Z,93650.22
2018-03-31T19:30:19.601Z,93629.45
2018-03-31T19:32:47.253Z,93587.89
2018-03-31T19:35:15.049Z,93635.74
2018-03-31T19:37:42.647Z,93678.67
2018-03-31T19:40:10.221Z,93617.78
2018-03-31T19:42:37.808Z,93622.51
2018-03-31T19:45:05.398Z,93621.27
2018-03-31T19:47:33.008Z,93595.80
2018-03-31T19:50:00.712Z,93602.63
2018-03-31T19:52:28.321Z,93615.81
2018-03-31T19:54:55.918Z,93605.91
2018-03-31T19:57:23.543Z,93619.39
2018-03-31T19:59:51.183Z,93625.55
2018-03-31T20:02:18.833Z,93596.42
2018-03-31T20:04:46.435Z,93579.71
2018-03-31T20:07:14.020Z,93602.63
2018-03-31T20:09:41.640Z,93567.94
2018-03-31T20:12:09.235Z,93587.04
2018-03-31T20:14:36.845Z,93555.33
2018-03-31T20:17:04.512Z,93588.39
2018-03-31T20:19:32.163Z,93578.03
2018-03-31T20:21:59.752Z,93556.39
2018-03-31T20:24:27.329Z,93526.34
2018-03-31T20:26:54.995Z,93538.22
2018-03-31T20:29:22.636Z,93542.77
2018-03-31T20:31:50.274Z,93523.27
2018-03-31T20:34:17.841Z,93531.38
2018-03-31T20:36:45.477Z,93524.33
2018-03-31T20:39:13.060Z,93522.01
2018-03-31T20:41:40.662Z,93476.55
2018-03-31T20:44:08.227Z,93486.52
2018-03-31T20:46:35.917Z,93440.59
2018-03-31T20:49:03.502Z,93444.15
2018-03-31T20:51:31.110Z,93483.95
2018-03-31T20:53:58.735Z,93504.14
2018-03-31T20:56:26.434Z,93464.16
2018-03-31T20:58:54.198Z,93457.75
2018-03-31T21:01:21.765Z,93486.41
2018-03-31T21:03:49.380Z,93461.55
2018-03-31T21:06:16.940Z,93459.22
2018-03-31T21:08:44.644Z,93472.58
2018-03-31T21:11:12.301Z,93442.51
2018-03-31T21:13:39.869Z,93439.78
2018-03-31T21:16:07.548Z,93413.95
2018-03-31T21:18:35.261Z,93459.88
2018-03-31T21:21:02.804Z,93428.78
2018-03-31T21:23:30.418Z,93439.67
2018-03-31T21:25:57.985Z,93446.92
2018-03-31T21:28:25.637Z,93430.73
2018-03-31T21:30:53.225Z,93410.24
2018-03-31T21:33:20.849Z,93408.01
2018-03-31T21:35:48.491Z,93426.56
2018-03-31T21:38:16.064Z,93404.95
2018-03-31T21:40:43.684Z,93379.92
2018-03-31T21:43:11.249Z,93401.67
2018-03-31T21:45:38.979Z,93381.46
2018-03-31T21:48:06.596Z,93396.33
2018-03-31T21:50:34.262Z,93350.08
2018-03-31T21:53:01.837Z,93381.19
2018-03-31T21:55:29.449Z,93329.91
2018-03-31T21:57:57.097Z,93380.22
2018-03-31T22:00:24.729Z,93312.75
2018-03-31T22:02:52.407Z,93341.70
2018-03-31T22:05:19.978Z,93347.93
2018-03-31T22:07:47.586Z,93342.75
2018-03-31T22:10:15.172Z,93341.77
2018-03-31T22:12:42.868Z,93360.05
2018-03-31T22:15:16.109Z,93367.48
2018-03-31T22:17:43.746Z,93344.89
2018-03-31T22:20:11.317Z,93316.69
2018-03-31T22:22:38.959Z,93303.48
2018-03-31T22:25:06.530Z,93306.09
2018-03-31T22:27:34.128Z,93330.98
2018-03-31T22:30:01.852Z,93327.90
2018-03-31T22:32:29.416Z,93304.94
2018-03-31T22:34:56.990Z,93295.84
2018-03-31T22:37:24.564Z,93306.93
2018-03-31T22:39:52.177Z,93333.31
2018-03-31T22:42:19.751Z,93322.07
2018-03-31T22:44:47.371Z,93330.53
2018-03-31T22:47:14.944Z,93299.56
2018-03-31T22:49:42.509Z,93318.17
2018-03-31T22:52:10.125Z,93322.81
2018-03-31T22:54:37.725Z,93289.67
2018-03-31T22:57:05.329Z,93274.05
2018-03-31T22:59:33.002Z,93314.31
2018-03-31T23:02:00.579Z,93285.21
2018-03-31T23:04:28.472Z,93278.38
2018-03-31T23:06:56.327Z,93242.72
2018-03-31T23:09:24.238Z,93265.67
2018-03-31T23:11:52.120Z,93248.69
2018-03-31T23:14:19.993Z,93248.08
2018-03-31T23:16:47.926Z,93205.63
2018-03-31T23:19:15.815Z,93202.97
2018-03-31T23:21:43.884Z,93194.92
2018-03-31T23:24:11.745Z,93208.78
2018-03-31T23:26:39.712Z,93204.54
2018-03-31T23:29:07.643Z,93153.39
2018-03-31T23:31:35.492Z,93179.52
2018-03-31T23:34:03.369Z,93172.66
2018-03-31T23:36:31.294Z,93123.59
2018-03-31T23:38:58.864Z,93112.00
2018-03-31T23:41:26.502Z,93147.47
2018-03-31T23:43:54.107Z,93112.40
2018-03-31T23:46:21.686Z,93146.33
2018-03-31T23:48:49.326Z,93132.28
2018-03-31T23:51:16.913Z,93142.81
2018-03-31T23:53:44.505Z,93087.20
2018-03-31T23:56:12.137Z,93126.31
2018-03-31T23:58:39.771Z,93102.29
